Time;durP1;ratioP1;P1;durP2;ratioP2;P2;SDS_P1;SDS_P2;PMS_P1;PMS_P2;Temp;Humidity;BMP_temperature;BMP_pressure;BME280_temperature;BME280_humidity;BME280_pressure;Samples;Min_cycle;Max_cycle;Signal;HPM_P1;HPM_P2
2023/09/24 00:00:20;;;;;;;27.23;26.33;;;11.70;99.90;;;;;;5069850;28;20269;-63
2023/09/24 00:02:48;;;;;;;23.73;22.93;;;11.60;99.90;;;;;;5070016;28;20309;-63
2023/09/24 00:05:16;;;;;;;24.37;23.53;;;11.60;99.90;;;;;;5070064;28;20273;-63
2023/09/24 00:07:43;;;;;;;27.17;26.15;;;11.60;99.90;;;;;;5070257;28;20211;-64
2023/09/24 00:10:10;;;;;;;27.87;26.90;;;11.60;99.90;;;;;;5070188;28;20249;-63
2023/09/24 00:12:38;;;;;;;24.13;23.30;;;11.60;99.90;;;;;;5065000;28;20634;-64
2023/09/24 00:15:06;;;;;;;28.43;27.43;;;11.50;99.90;;;;;;5069028;28;20211;-63
2023/09/24 00:17:33;;;;;;;29.63;28.43;;;11.40;99.90;;;;;;5068201;28;20224;-62
2023/09/24 00:20:00;;;;;;;22.13;21.33;;;11.40;99.90;;;;;;5062686;28;20257;-63
2023/09/24 00:22:27;;;;;;;23.90;23.10;;;11.30;99.90;;;;;;5081966;28;20211;-62
2023/09/24 00:24:54;;;;;;;24.37;23.53;;;11.30;99.90;;;;;;5081647;28;20213;-63
2023/09/24 00:27:20;;;;;;;38.67;37.07;;;11.40;99.90;;;;;;5081739;28;20371;-62
2023/09/24 00:29:49;;;;;;;39.60;38.00;;;11.40;99.90;;;;;;5074438;28;20341;-62
2023/09/24 00:32:15;;;;;;;24.57;23.67;;;11.40;99.90;;;;;;5071152;28;20267;-61
2023/09/24 00:34:42;;;;;;;26.17;25.27;;;11.50;99.90;;;;;;5057925;28;20221;-63
2023/09/24 00:37:11;;;;;;;24.50;23.67;;;11.50;99.90;;;;;;5070788;28;20219;-62
2023/09/24 00:39:38;;;;;;;28.67;27.67;;;11.50;99.90;;;;;;5078866;28;20234;-62
2023/09/24 00:42:08;;;;;;;35.43;34.03;;;11.50;99.90;;;;;;5082743;28;20276;-62
2023/09/24 00:44:35;;;;;;;33.53;32.20;;;11.50;99.90;;;;;;5080048;28;20211;-64
2023/09/24 00:47:03;;;;;;;21.17;20.48;;;11.50;99.90;;;;;;5077877;28;20211;-63
2023/09/24 00:49:32;;;;;;;35.92;34.38;;;11.40;99.90;;;;;;5075559;28;20289;-62
2023/09/24 00:51:59;;;;;;;35.72;34.35;;;11.40;99.90;;;;;;5073917;28;20226;-63
2023/09/24 00:54:26;;;;;;;23.97;23.13;;;11.40;99.90;;;;;;5073619;28;20641;-63
2023/09/24 00:56:58;;;;;;;23.43;22.63;;;11.40;99.90;;;;;;5072717;28;20680;-64
2023/09/24 00:59:25;;;;;;;45.07;43.17;;;11.30;99.90;;;;;;5072510;28;20716;-63
2023/09/24 01:01:53;;;;;;;23.47;22.67;;;11.30;99.90;;;;;;5072745;28;20317;-62
2023/09/24 01:04:21;;;;;;;24.83;23.97;;;11.30;99.90;;;;;;5072210;28;20214;-63
2023/09/24 01:06:48;;;;;;;22.93;22.13;;;11.30;99.90;;;;;;5072051;28;20555;-63
2023/09/24 01:09:20;;;;;;;36.73;35.17;;;11.30;99.90;;;;;;5071997;28;20621;-64
2023/09/24 01:11:48;;;;;;;22.23;21.43;;;11.30;99.90;;;;;;5072454;28;20207;-64
2023/09/24 01:14:15;;;;;;;21.83;21.07;;;11.30;99.90;;;;;;5072146;28;20261;-63
2023/09/24 01:16:42;;;;;;;24.77;23.87;;;11.30;99.90;;;;;;5072201;28;20231;-64
2023/09/24 01:19:09;;;;;;;22.03;21.27;;;11.30;99.90;;;;;;5072154;28;20651;-62
2023/09/24 01:21:38;;;;;;;23.97;23.17;;;11.20;99.90;;;;;;5071951;28;20207;-62
2023/09/24 01:24:08;;;;;;;25.90;25.00;;;11.20;99.90;;;;;;5073013;28;20571;-62
2023/09/24 01:26:35;;;;;;;22.57;21.77;;;11.20;99.90;;;;;;5068759;28;20242;-62
2023/09/24 01:29:05;;;;;;;23.80;23.00;;;11.10;99.90;;;;;;5072471;28;20207;-61
2023/09/24 01:31:32;;;;;;;23.77;22.97;;;11.10;99.90;;;;;;5072043;28;20207;-65
2023/09/24 01:34:01;;;;;;;25.33;24.43;;;11.10;99.90;;;;;;5072503;28;20294;-65
2023/09/24 01:36:29;;;;;;;88.93;84.10;;;11.10;99.90;;;;;;5071537;28;20586;-63
2023/09/24 01:38:56;;;;;;;24.40;23.57;;;11.00;99.90;;;;;;5071974;28;20234;-63
2023/09/24 01:41:25;;;;;;;34.77;33.50;;;11.00;99.90;;;;;;5071057;28;20239;-64
2023/09/24 01:43:52;;;;;;;23.83;22.93;;;11.00;99.90;;;;;;5071613;28;20215;-63
2023/09/24 01:46:21;;;;;;;22.90;22.10;;;11.10;99.90;;;;;;5071275;28;20261;-65
2023/09/24 01:48:50;;;;;;;25.00;24.10;;;11.00;99.90;;;;;;5071713;28;20353;-64
2023/09/24 01:51:17;;;;;;;23.43;22.63;;;11.00;99.90;;;;;;5071487;28;20227;-63
2023/09/24 01:53:43;;;;;;;20.40;19.70;;;11.00;99.90;;;;;;5071293;28;20212;-64
2023/09/24 01:56:10;;;;;;;21.80;21.00;;;10.90;99.90;;;;;;5071277;28;20211;-65
2023/09/24 01:58:39;;;;;;;23.90;23.10;;;10.90;99.90;;;;;;5070966;28;20313;-64
2023/09/24 02:01:06;;;;;;;28.43;27.33;;;10.90;99.90;;;;;;5071440;28;20257;-64
2023/09/24 02:03:34;;;;;;;13.83;13.33;;;10.80;99.90;;;;;;5071213;28;20340;-65
2023/09/24 02:06:01;;;;;;;13.50;13.00;;;10.90;99.90;;;;;;5071169;28;20207;-65
2023/09/24 02:08:29;;;;;;;13.97;13.47;;;10.80;99.90;;;;;;5071078;28;20227;-64
2023/09/24 02:10:57;;;;;;;13.20;12.70;;;10.90;99.90;;;;;;5070909;28;20306;-63
2023/09/24 02:13:24;;;;;;;14.07;13.57;;;10.80;99.90;;;;;;5071245;28;20207;-63
2023/09/24 02:15:52;;;;;;;15.40;14.90;;;10.80;99.90;;;;;;5071263;28;20590;-65
2023/09/24 02:18:19;;;;;;;14.87;14.37;;;10.70;99.90;;;;;;5071633;28;20231;-65
2023/09/24 02:20:47;;;;;;;13.83;13.33;;;10.70;99.90;;;;;;5075263;28;20231;-65
2023/09/24 02:23:14;;;;;;;13.10;12.70;;;10.80;99.90;;;;;;5075467;28;20242;-64
2023/09/24 02:25:41;;;;;;;12.73;12.32;;;10.70;99.90;;;;;;5075707;28;20708;-63
2023/09/24 02:28:08;;;;;;;15.07;14.57;;;10.70;99.90;;;;;;5075858;28;20210;-64
2023/09/24 02:30:36;;;;;;;14.23;13.73;;;10.70;99.90;;;;;;5074502;28;20262;-65
2023/09/24 02:33:05;;;;;;;16.07;15.47;;;10.60;99.90;;;;;;5073038;28;20215;-65
2023/09/24 02:35:31;;;;;;;17.07;16.40;;;10.60;99.90;;;;;;5075077;28;20207;-63
2023/09/24 02:37:59;;;;;;;14.17;13.67;;;10.60;99.90;;;;;;5072214;28;20235;-64
2023/09/24 02:40:27;;;;;;;15.50;14.90;;;10.60;99.90;;;;;;5070941;28;20243;-64
2023/09/24 02:42:56;;;;;;;17.07;16.47;;;10.60;99.90;;;;;;5070674;28;20253;-64
2023/09/24 02:45:23;;;;;;;15.13;14.63;;;10.60;99.90;;;;;;5070704;28;20708;-64
2023/09/24 02:47:50;;;;;;;14.20;13.70;;;10.60;99.90;;;;;;5071031;28;20203;-65
2023/09/24 02:50:22;;;;;;;14.77;14.27;;;10.50;99.90;;;;;;5070758;28;20231;-65
2023/09/24 02:52:50;;;;;;;15.10;14.60;;;10.50;99.90;;;;;;5070748;28;20206;-64
2023/09/24 02:55:19;;;;;;;14.17;13.67;;;10.50;99.90;;;;;;5070735;28;20229;-64
2023/09/24 02:57:47;;;;;;;16.50;15.90;;;10.50;99.90;;;;;;5070765;28;20673;-64
2023/09/24 03:00:17;;;;;;;22.57;21.57;;;10.40;99.90;;;;;;5070900;28;20642;-65
2023/09/24 03:02:44;;;;;;;14.13;13.63;;;10.40;99.90;;;;;;5071096;28;20206;-63
2023/09/24 03:05:12;;;;;;;13.17;12.77;;;10.40;99.90;;;;;;5070222;28;20807;-65
2023/09/24 03:07:42;;;;;;;14.77;14.27;;;10.40;99.90;;;;;;5070880;28;20219;-64
2023/09/24 03:10:10;;;;;;;14.70;14.20;;;10.30;99.90;;;;;;5071029;28;20258;-63
2023/09/24 03:12:37;;;;;;;16.77;16.17;;;10.40;99.90;;;;;;5071092;28;20210;-65
2023/09/24 03:15:06;;;;;;;16.30;15.73;;;10.30;99.90;;;;;;5071032;28;20211;-64
2023/09/24 03:17:34;;;;;;;15.73;15.23;;;10.20;99.90;;;;;;5070930;28;20294;-64
2023/09/24 03:20:04;;;;;;;14.90;14.40;;;10.20;99.90;;;;;;5072789;28;20230;-65
2023/09/24 03:22:31;;;;;;;14.73;14.23;;;10.20;99.90;;;;;;5074154;28;20274;-65
2023/09/24 03:25:00;;;;;;;15.83;15.27;;;10.10;99.90;;;;;;5074919;28;20219;-63
2023/09/24 03:27:27;;;;;;;13.57;13.07;;;10.10;99.90;;;;;;5074727;28;20230;-63
2023/09/24 03:29:54;;;;;;;16.37;15.77;;;10.10;99.90;;;;;;5071997;28;20237;-63
2023/09/24 03:32:21;;;;;;;14.97;14.47;;;10.10;99.90;;;;;;5070864;28;20215;-64
2023/09/24 03:34:48;;;;;;;15.60;15.10;;;10.20;99.90;;;;;;5071609;28;20646;-64
2023/09/24 03:37:16;;;;;;;16.87;16.27;;;10.20;99.90;;;;;;5072586;28;20284;-64
2023/09/24 03:39:42;;;;;;;17.90;17.30;;;10.20;99.90;;;;;;5071344;28;20761;-64
2023/09/24 03:42:11;;;;;;;15.43;14.93;;;10.20;99.90;;;;;;5071115;28;20211;-64
2023/09/24 03:44:38;;;;;;;16.90;16.30;;;10.20;99.90;;;;;;5070842;28;20207;-64
2023/09/24 03:47:05;;;;;;;19.43;18.73;;;10.10;99.90;;;;;;5070436;28;20284;-65
2023/09/24 03:49:32;;;;;;;14.80;14.30;;;10.20;99.90;;;;;;5070579;28;20231;-63
2023/09/24 03:51:59;;;;;;;19.10;18.40;;;10.10;99.90;;;;;;5070198;28;20222;-63
2023/09/24 03:54:25;;;;;;;15.13;14.63;;;10.10;99.90;;;;;;5071965;28;20207;-63
2023/09/24 03:56:52;;;;;;;19.17;18.47;;;10.00;99.90;;;;;;5073760;28;20207;-64
2023/09/24 03:59:20;;;;;;;20.05;19.35;;;10.10;99.90;;;;;;5073910;28;20238;-63
2023/09/24 04:01:47;;;;;;;17.03;16.43;;;10.00;99.90;;;;;;5073812;28;20211;-63
2023/09/24 04:04:14;;;;;;;19.13;18.42;;;10.00;99.90;;;;;;5073741;28;20218;-64
2023/09/24 04:06:41;;;;;;;19.47;18.77;;;10.00;99.90;;;;;;5073853;28;20229;-64
2023/09/24 04:09:08;;;;;;;18.60;17.97;;;10.00;99.90;;;;;;5073949;28;20207;-64
2023/09/24 04:11:35;;;;;;;20.73;20.03;;;10.00;99.90;;;;;;5073835;28;20377;-64
2023/09/24 04:14:02;;;;;;;19.13;18.47;;;10.00;99.90;;;;;;5073473;28;20289;-64
2023/09/24 04:16:30;;;;;;;15.03;14.53;;;10.00;99.90;;;;;;5073560;28;20219;-65
2023/09/24 04:18:57;;;;;;;18.03;17.40;;;10.00;99.90;;;;;;5074266;28;20235;-63
2023/09/24 04:21:24;;;;;;;13.90;13.40;;;10.00;99.90;;;;;;5073634;28;20242;-64
2023/09/24 04:23:51;;;;;;;17.37;16.77;;;9.90;99.90;;;;;;5073571;28;20681;-64
2023/09/24 04:26:21;;;;;;;20.13;19.43;;;9.90;99.90;;;;;;5073116;28;20673;-64
2023/09/24 04:28:49;;;;;;;16.63;16.03;;;9.80;99.90;;;;;;5073332;28;20824;-64
2023/09/24 04:31:16;;;;;;;17.70;17.10;;;9.80;99.90;;;;;;5073229;28;20231;-65
2023/09/24 04:33:45;;;;;;;17.97;17.37;;;9.90;99.90;;;;;;5073739;28;20242;-64
2023/09/24 04:36:11;;;;;;;17.37;16.77;;;9.90;99.90;;;;;;5073268;28;20214;-64
2023/09/24 04:38:41;;;;;;;16.58;16.00;;;9.90;99.90;;;;;;5073238;28;20233;-65
2023/09/24 04:41:08;;;;;;;17.02;16.42;;;9.90;99.90;;;;;;5068856;28;20728;-64
2023/09/24 04:43:35;;;;;;;16.13;15.60;;;9.90;99.90;;;;;;5073278;28;20674;-64
2023/09/24 04:46:05;;;;;;;16.30;15.70;;;9.90;99.90;;;;;;5076791;28;20219;-65
2023/09/24 04:48:32;;;;;;;14.83;14.33;;;9.80;99.90;;;;;;5074065;28;20252;-63
2023/09/24 04:51:00;;;;;;;14.03;13.53;;;9.90;99.90;;;;;;5073552;28;20245;-63
2023/09/24 04:53:27;;;;;;;16.27;15.67;;;9.90;99.90;;;;;;5073105;28;20625;-65
2023/09/24 04:55:55;;;;;;;13.10;12.70;;;9.90;99.90;;;;;;5072843;28;20219;-63
2023/09/24 04:58:22;;;;;;;23.50;22.60;;;9.90;99.90;;;;;;5073407;28;20231;-65
2023/09/24 05:00:49;;;;;;;13.90;13.40;;;9.80;99.90;;;;;;5073180;28;20236;-65
2023/09/24 05:03:16;;;;;;;13.23;12.80;;;9.90;99.90;;;;;;5073388;28;20207;-63
2023/09/24 05:05:43;;;;;;;15.60;15.10;;;9.90;99.90;;;;;;5072594;28;20211;-63
2023/09/24 05:08:11;;;;;;;13.70;13.20;;;9.80;99.90;;;;;;5072882;28;20207;-63
2023/09/24 05:10:41;;;;;;;15.35;14.85;;;9.80;99.90;;;;;;5073261;28;20720;-63
2023/09/24 05:13:08;;;;;;;16.27;15.67;;;9.80;99.90;;;;;;5073193;28;20218;-64
2023/09/24 05:15:36;;;;;;;15.87;15.30;;;9.90;99.90;;;;;;5072889;28;20278;-64
2023/09/24 05:18:03;;;;;;;16.20;15.60;;;9.90;99.90;;;;;;5072935;28;20207;-64
2023/09/24 05:20:31;;;;;;;16.63;16.07;;;9.80;99.90;;;;;;5072802;28;20235;-64
2023/09/24 05:22:58;;;;;;;14.20;13.70;;;9.90;99.90;;;;;;5072497;28;20243;-64
2023/09/24 05:25:26;;;;;;;16.13;15.63;;;9.90;99.90;;;;;;5072669;28;20233;-64
2023/09/24 05:27:53;;;;;;;16.23;15.57;;;9.90;99.90;;;;;;5072927;28;20215;-64
2023/09/24 05:30:20;;;;;;;19.37;18.67;;;9.90;99.90;;;;;;5072900;28;20226;-64
2023/09/24 05:32:46;;;;;;;16.57;15.97;;;9.80;99.90;;;;;;5072712;28;20725;-63
2023/09/24 05:35:13;;;;;;;17.90;17.30;;;9.80;99.90;;;;;;5072088;28;20586;-65
2023/09/24 05:37:40;;;;;;;15.13;14.60;;;9.80;99.90;;;;;;5069589;28;20207;-64
2023/09/24 05:40:08;;;;;;;15.73;15.13;;;9.80;99.90;;;;;;5072708;28;20322;-63
2023/09/24 05:42:37;;;;;;;16.53;15.97;;;9.80;99.90;;;;;;5073161;28;20590;-65
2023/09/24 05:45:04;;;;;;;17.93;17.33;;;9.80;99.90;;;;;;5073536;28;20666;-64
2023/09/24 05:47:31;;;;;;;18.20;17.60;;;9.80;99.90;;;;;;5076610;28;20207;-65
2023/09/24 05:49:58;;;;;;;15.70;15.13;;;9.80;99.90;;;;;;5085946;28;20235;-64
2023/09/24 05:52:25;;;;;;;18.23;17.63;;;9.80;99.90;;;;;;5075735;28;20230;-64
2023/09/24 05:54:52;;;;;;;15.53;15.03;;;9.80;99.90;;;;;;5087186;28;20276;-64
2023/09/24 05:57:19;;;;;;;16.07;15.53;;;9.80;99.90;;;;;;5086224;28;20222;-63
2023/09/24 05:59:47;;;;;;;18.13;17.53;;;9.80;99.90;;;;;;5083621;28;20599;-65
2023/09/24 06:02:13;;;;;;;18.00;17.40;;;9.80;99.90;;;;;;5068363;28;20208;-64
2023/09/24 06:04:40;;;;;;;25.07;24.10;;;9.80;99.90;;;;;;5072122;28;20208;-64
2023/09/24 06:07:07;;;;;;;14.57;14.07;;;9.80;99.90;;;;;;5071770;28;20210;-65
2023/09/24 06:09:34;;;;;;;15.17;14.67;;;9.90;99.90;;;;;;5071989;28;20235;-65
2023/09/24 06:12:01;;;;;;;15.77;15.17;;;9.90;99.90;;;;;;5071889;28;20203;-63
2023/09/24 06:14:27;;;;;;;17.27;16.67;;;9.90;99.90;;;;;;5067503;28;20556;-64
2023/09/24 06:16:55;;;;;;;16.67;16.07;;;10.00;99.90;;;;;;5071254;28;20241;-64
2023/09/24 06:19:22;;;;;;;20.13;19.37;;;10.10;99.90;;;;;;5071204;28;20238;-63
2023/09/24 06:21:51;;;;;;;19.30;18.63;;;10.20;99.90;;;;;;5072290;28;20213;-62
2023/09/24 06:24:17;;;;;;;16.25;15.70;;;10.20;99.90;;;;;;5071009;28;20211;-66
2023/09/24 06:26:44;;;;;;;18.13;17.53;;;10.30;99.90;;;;;;5081443;28;20211;-65
2023/09/24 06:29:11;;;;;;;17.30;16.70;;;10.30;99.90;;;;;;5082759;28;20211;-63
2023/09/24 06:31:38;;;;;;;17.63;17.03;;;10.40;99.90;;;;;;5081742;28;20568;-62
2023/09/24 06:34:06;;;;;;;18.10;17.50;;;10.50;99.90;;;;;;5073023;28;20547;-64
2023/09/24 06:36:33;;;;;;;18.90;18.30;;;10.50;99.90;;;;;;5071190;28;20199;-64
2023/09/24 06:39:00;;;;;;;18.60;18.00;;;10.60;99.90;;;;;;5071858;28;20229;-64
2023/09/24 06:41:27;;;;;;;19.43;18.73;;;10.60;99.90;;;;;;5071069;28;20219;-64
2023/09/24 06:43:54;;;;;;;21.10;20.40;;;10.70;99.90;;;;;;5071205;28;20211;-63
2023/09/24 06:46:21;;;;;;;26.47;25.43;;;10.80;99.90;;;;;;5070643;28;20203;-63
2023/09/24 06:48:47;;;;;;;19.83;19.13;;;10.80;99.90;;;;;;5071499;28;20209;-64
2023/09/24 06:51:16;;;;;;;22.13;21.33;;;10.90;99.90;;;;;;5071670;28;20229;-63
2023/09/24 06:53:42;;;;;;;23.17;22.37;;;11.00;99.90;;;;;;5063416;28;20630;-62
2023/09/24 06:56:09;;;;;;;25.50;24.60;;;11.10;99.90;;;;;;5071390;28;20252;-65
2023/09/24 06:58:37;;;;;;;23.33;22.53;;;11.20;99.90;;;;;;5064264;28;20222;-62
2023/09/24 07:01:06;;;;;;;22.80;22.00;;;11.20;99.90;;;;;;5067615;28;20323;-64
2023/09/24 07:03:33;;;;;;;36.07;34.70;;;11.30;99.90;;;;;;5071394;28;20206;-64
2023/09/24 07:06:00;;;;;;;26.10;25.20;;;11.50;99.90;;;;;;5070955;28;20745;-62
2023/09/24 07:08:28;;;;;;;25.23;24.30;;;11.50;99.90;;;;;;5070401;28;20215;-63
2023/09/24 07:11:23;;;;;;;25.92;25.02;;;11.60;99.90;;;;;;5061962;28;20636;-63
2023/09/24 07:13:50;;;;;;;22.60;21.80;;;11.70;99.90;;;;;;5062192;28;20210;-62
2023/09/24 07:16:17;;;;;;;23.93;23.13;;;11.80;99.90;;;;;;5067354;28;20688;-65
2023/09/24 07:18:43;;;;;;;23.00;22.20;;;11.90;99.90;;;;;;5070094;28;20217;-64
2023/09/24 07:21:11;;;;;;;23.03;22.23;;;12.00;99.90;;;;;;5064137;28;20237;-63
2023/09/24 07:23:39;;;;;;;22.70;21.90;;;12.20;99.90;;;;;;5064687;28;20254;-63
2023/09/24 07:26:08;;;;;;;20.90;20.20;;;12.30;99.90;;;;;;5068941;28;20652;-66
2023/09/24 07:28:35;;;;;;;23.20;22.40;;;12.40;99.90;;;;;;5061423;28;20227;-63
2023/09/24 07:31:01;;;;;;;25.33;24.43;;;12.50;99.90;;;;;;5074591;28;20214;-64
2023/09/24 07:33:28;;;;;;;25.80;24.90;;;12.60;99.90;;;;;;5074193;28;20214;-63
2023/09/24 07:35:55;;;;;;;27.53;26.53;;;12.80;99.90;;;;;;5073466;28;20294;-63
2023/09/24 07:38:22;;;;;;;28.80;27.80;;;12.90;99.90;;;;;;5072755;28;20203;-64
2023/09/24 07:40:50;;;;;;;23.53;22.63;;;13.10;99.90;;;;;;5072685;28;20231;-63
2023/09/24 07:43:17;;;;;;;24.27;23.43;;;13.20;99.90;;;;;;5064435;28;20219;-63
2023/09/24 07:45:44;;;;;;;22.87;22.07;;;13.20;99.90;;;;;;5072230;28;20203;-65
2023/09/24 07:48:14;;;;;;;22.43;21.63;;;13.40;99.90;;;;;;5061942;28;20855;-63
2023/09/24 07:50:41;;;;;;;20.80;20.00;;;13.50;99.90;;;;;;5072746;28;20280;-63
2023/09/24 07:53:09;;;;;;;19.63;18.93;;;13.60;99.90;;;;;;5072920;28;20200;-64
2023/09/24 07:55:37;;;;;;;13.83;13.37;;;13.80;99.90;;;;;;5061790;28;20204;-65
2023/09/24 07:58:06;;;;;;;12.63;12.23;;;13.90;99.90;;;;;;5069697;28;20276;-64
2023/09/24 08:00:32;;;;;;;13.77;13.27;;;14.10;99.90;;;;;;5072966;28;20250;-64
2023/09/24 08:03:00;;;;;;;13.63;13.17;;;14.30;99.90;;;;;;5073393;28;20203;-63
2023/09/24 08:05:27;;;;;;;12.70;12.25;;;14.50;99.90;;;;;;5072182;28;20599;-64
2023/09/24 08:07:54;;;;;;;12.50;12.10;;;14.70;99.90;;;;;;5064257;28;20212;-63
2023/09/24 08:10:21;;;;;;;12.00;11.60;;;14.80;99.90;;;;;;5072492;28;20220;-64
2023/09/24 08:12:48;;;;;;;13.30;12.80;;;15.00;99.90;;;;;;5072252;28;20211;-64
2023/09/24 08:15:16;;;;;;;13.30;12.80;;;15.00;99.90;;;;;;5066596;28;20207;-64
2023/09/24 08:17:43;;;;;;;13.33;12.93;;;15.20;99.90;;;;;;5070896;28;20298;-64
2023/09/24 08:20:10;;;;;;;13.77;13.27;;;15.30;99.90;;;;;;5070059;28;20691;-64
2023/09/24 08:22:37;;;;;;;14.10;13.50;;;15.40;99.90;;;;;;5068790;28;20204;-64
2023/09/24 08:25:04;;;;;;;13.43;12.97;;;15.60;99.90;;;;;;5068155;28;20210;-64
2023/09/24 08:27:31;;;;;;;12.30;11.90;;;15.70;99.90;;;;;;5063176;28;20656;-63
2023/09/24 08:29:58;;;;;;;12.10;11.70;;;15.90;99.90;;;;;;5073592;28;20228;-63
2023/09/24 08:32:26;;;;;;;12.80;12.30;;;16.00;99.90;;;;;;5074100;28;20203;-63
2023/09/24 08:34:53;;;;;;;12.73;12.33;;;15.90;99.90;;;;;;5073637;28;20199;-63
2023/09/24 08:37:20;;;;;;;13.57;13.07;;;15.90;99.90;;;;;;5056280;28;20208;-63
2023/09/24 08:39:47;;;;;;;13.70;13.20;;;16.00;99.90;;;;;;5070760;28;20689;-63
2023/09/24 08:42:16;;;;;;;12.80;12.40;;;16.10;99.90;;;;;;5070411;28;20294;-63
2023/09/24 08:44:43;;;;;;;12.68;12.27;;;16.20;99.90;;;;;;5070863;28;20210;-63
2023/09/24 08:47:11;;;;;;;13.00;12.50;;;16.30;99.90;;;;;;5078455;28;20207;-64
2023/09/24 08:49:41;;;;;;;13.40;12.90;;;16.50;99.90;;;;;;5075478;28;20227;-63
2023/09/24 08:52:11;;;;;;;13.37;12.87;;;16.60;99.90;;;;;;5075883;28;20225;-63
2023/09/24 08:54:39;;;;;;;13.20;12.73;;;16.60;99.90;;;;;;5085466;28;20282;-63
2023/09/24 08:57:05;;;;;;;14.10;13.60;;;16.80;99.90;;;;;;5082223;28;20206;-63
2023/09/24 08:59:32;;;;;;;15.63;15.07;;;16.70;99.90;;;;;;5074318;28;20302;-63
2023/09/24 09:01:59;;;;;;;13.97;13.47;;;16.80;99.90;;;;;;5071513;28;20214;-63
2023/09/24 09:04:26;;;;;;;14.20;13.70;;;16.80;99.90;;;;;;5073730;28;20207;-63
2023/09/24 09:06:56;;;;;;;14.03;13.53;;;17.00;99.90;;;;;;5075303;28;20221;-63
2023/09/24 09:09:28;;;;;;;14.73;14.23;;;17.20;99.90;;;;;;5072762;28;20242;-63
2023/09/24 09:11:54;;;;;;;14.20;13.70;;;17.10;99.90;;;;;;5057639;28;20455;-63
2023/09/24 09:14:35;;;;;;;14.10;13.60;;;17.30;99.90;;;;;;5064574;28;20297;-64
2023/09/24 09:17:02;;;;;;;14.47;13.97;;;17.60;99.90;;;;;;5075469;28;20203;-64
2023/09/24 09:19:30;;;;;;;13.10;12.60;;;17.80;99.90;;;;;;5075200;28;20227;-63
2023/09/24 09:22:17;;;;;;;12.50;12.00;;;17.90;99.90;;;;;;5064958;28;20210;-63
2023/09/24 09:24:44;;;;;;;13.00;12.50;;;17.90;99.90;;;;;;5060142;28;20203;-63
2023/09/24 09:27:10;;;;;;;13.15;12.73;;;17.80;99.90;;;;;;5059835;28;20283;-62
2023/09/24 09:29:37;;;;;;;12.90;12.50;;;17.80;99.90;;;;;;5069384;28;20225;-63
2023/09/24 09:32:04;;;;;;;14.80;14.30;;;17.90;99.90;;;;;;5072199;28;20608;-63
2023/09/24 09:34:32;;;;;;;13.87;13.37;;;18.00;99.90;;;;;;5072766;28;20720;-63
2023/09/24 09:37:17;;;;;;;14.20;13.70;;;18.20;99.90;;;;;;5073296;28;20211;-63
2023/09/24 09:39:45;;;;;;;15.10;14.60;;;18.20;99.90;;;;;;5072084;28;20717;-63
2023/09/24 09:42:20;;;;;;;13.93;13.43;;;18.30;99.90;;;;;;5075225;28;20215;-63
2023/09/24 09:44:48;;;;;;;14.50;14.00;;;18.50;99.90;;;;;;5073049;28;20206;-63
2023/09/24 09:47:18;;;;;;;13.80;13.30;;;18.60;99.90;;;;;;5075177;28;20302;-63
2023/09/24 09:49:53;;;;;;;14.67;14.17;;;18.80;99.90;;;;;;5076460;28;20230;-63
2023/09/24 09:52:23;;;;;;;14.50;14.00;;;18.90;99.90;;;;;;5067552;28;20624;-63
2023/09/24 09:54:54;;;;;;;14.00;13.50;;;18.90;99.90;;;;;;5075519;28;20218;-63
2023/09/24 09:57:21;;;;;;;13.98;13.48;;;19.00;99.90;;;;;;5077350;28;20272;-63
2023/09/24 09:59:48;;;;;;;14.70;14.20;;;19.00;99.90;;;;;;5074634;28;20231;-63
2023/09/24 10:02:16;;;;;;;14.32;13.82;;;19.10;99.90;;;;;;5064983;28;20350;-62
2023/09/24 10:04:43;;;;;;;15.50;14.90;;;19.20;99.90;;;;;;5069663;28;20887;-62
2023/09/24 10:07:10;;;;;;;14.30;13.80;;;19.30;99.90;;;;;;5072408;28;20207;-64
2023/09/24 10:09:39;;;;;;;14.52;14.02;;;19.40;99.90;;;;;;5067872;28;20401;-64
2023/09/24 10:12:08;;;;;;;14.25;13.75;;;19.40;99.90;;;;;;5073061;28;20215;-64
2023/09/24 10:14:36;;;;;;;15.60;15.10;;;19.50;99.90;;;;;;5071240;28;20289;-64
2023/09/24 10:17:23;;;;;;;16.02;15.52;;;19.50;99.90;;;;;;5065008;28;20217;-63
2023/09/24 10:19:51;;;;;;;14.83;14.33;;;19.50;99.90;;;;;;5066795;28;20231;-64
2023/09/24 10:22:26;;;;;;;16.17;15.57;;;19.30;99.90;;;;;;5070885;28;20216;-64
2023/09/24 10:24:54;;;;;;;15.15;14.65;;;19.40;99.90;;;;;;5071590;28;20203;-63
2023/09/24 10:27:24;;;;;;;15.70;15.10;;;19.60;99.90;;;;;;5068996;28;20213;-63
2023/09/24 10:30:10;;;;;;;19.52;18.83;;;19.80;99.90;;;;;;5072683;28;20243;-63
2023/09/24 10:32:44;;;;;;;14.95;14.45;;;19.80;99.90;;;;;;5071753;28;20211;-63
2023/09/24 10:35:12;;;;;;;15.70;15.20;;;19.50;99.90;;;;;;5068328;28;20279;-64
2023/09/24 10:38:01;;;;;;;14.80;14.30;;;19.80;99.90;;;;;;5069300;28;20210;-64
2023/09/24 10:40:29;;;;;;;15.00;14.50;;;19.90;99.90;;;;;;5074369;28;20231;-65
2023/09/24 10:43:14;;;;;;;14.07;13.57;;;20.00;99.90;;;;;;5069704;28;20211;-63
2023/09/24 10:45:42;;;;;;;14.18;13.68;;;20.00;99.90;;;;;;5071666;28;20222;-63
2023/09/24 10:48:09;;;;;;;14.60;14.10;;;19.90;99.90;;;;;;5074480;28;20203;-63
2023/09/24 10:50:39;;;;;;;15.20;14.70;;;19.90;99.90;;;;;;5074632;28;20219;-63
2023/09/24 10:53:06;;;;;;;17.73;17.13;;;19.90;99.90;;;;;;5063805;28;20576;-66
2023/09/24 10:55:36;;;;;;;15.27;14.70;;;20.10;99.90;;;;;;5072104;28;20307;-64
2023/09/24 10:58:05;;;;;;;14.85;14.35;;;20.00;99.90;;;;;;5062723;28;20253;-63
2023/09/24 11:00:33;;;;;;;15.90;15.33;;;20.10;99.90;;;;;;5071102;28;21011;-63
2023/09/24 11:03:01;;;;;;;14.80;14.30;;;20.10;99.90;;;;;;5074213;28;20215;-65
2023/09/24 11:05:29;;;;;;;15.68;15.07;;;19.90;99.90;;;;;;5072985;28;20238;-64
2023/09/24 11:07:57;;;;;;;14.57;14.07;;;20.00;99.90;;;;;;5074433;28;20306;-63
2023/09/24 11:10:25;;;;;;;14.70;14.20;;;20.20;99.90;;;;;;5073270;28;20333;-64
2023/09/24 11:12:54;;;;;;;15.13;14.63;;;20.30;99.90;;;;;;5072718;28;20287;-64
2023/09/24 11:15:24;;;;;;;14.60;14.10;;;20.30;99.90;;;;;;5073435;28;20257;-64
2023/09/24 11:17:52;;;;;;;14.52;14.02;;;20.40;99.90;;;;;;5073383;28;20294;-63
2023/09/24 11:20:21;;;;;;;15.98;15.38;;;20.50;99.90;;;;;;5073829;28;20290;-65
2023/09/24 11:22:57;;;;;;;16.33;15.75;;;20.60;99.90;;;;;;5072769;28;20215;-62
2023/09/24 11:25:24;;;;;;;14.70;14.20;;;20.50;99.90;;;;;;5072646;28;20203;-64
2023/09/24 11:27:54;;;;;;;18.20;17.60;;;20.60;99.90;;;;;;5073163;28;20302;-63
2023/09/24 11:30:23;;;;;;;18.52;17.92;;;20.80;99.90;;;;;;5072968;28;20223;-65
2023/09/24 11:32:52;;;;;;;16.83;16.15;;;20.90;99.90;;;;;;5074381;28;20234;-66
2023/09/24 11:35:20;;;;;;;17.40;16.80;;;21.00;99.90;;;;;;5074002;28;20889;-65
2023/09/24 11:37:50;;;;;;;17.55;16.95;;;21.20;99.90;;;;;;5073480;28;20210;-64
2023/09/24 11:40:28;;;;;;;18.58;17.90;;;21.30;99.90;;;;;;5071445;28;20317;-63
2023/09/24 11:42:57;;;;;;;17.10;16.50;;;21.20;99.90;;;;;;5073205;28;20293;-63
2023/09/24 11:45:53;;;;;;;16.27;15.75;;;21.30;99.90;;;;;;5071513;28;20203;-64
2023/09/24 11:48:23;;;;;;;17.85;17.25;;;21.30;99.90;;;;;;5049137;28;20210;-63
2023/09/24 11:50:51;;;;;;;16.52;15.93;;;21.40;99.90;;;;;;5061793;28;20232;-64
2023/09/24 11:53:20;;;;;;;15.43;14.93;;;21.50;99.90;;;;;;5051367;28;20215;-64
2023/09/24 11:55:48;;;;;;;13.88;13.38;;;21.70;99.90;;;;;;5060852;28;20211;-63
2023/09/24 11:58:20;;;;;;;16.00;15.40;;;21.60;99.90;;;;;;5069445;28;20217;-63
2023/09/24 12:00:47;;;;;;;15.55;15.05;;;21.70;99.90;;;;;;5067400;28;20227;-63
2023/09/24 12:03:15;;;;;;;14.48;13.98;;;21.90;99.90;;;;;;5070634;28;20199;-64
2023/09/24 12:05:42;;;;;;;14.88;14.38;;;21.60;99.90;;;;;;5068224;28;20195;-63
2023/09/24 12:08:09;;;;;;;15.35;14.75;;;21.60;99.90;;;;;;5068625;28;20206;-64
2023/09/24 12:10:38;;;;;;;14.65;14.15;;;21.70;99.90;;;;;;5066019;28;20311;-63
2023/09/24 12:13:05;;;;;;;15.10;14.60;;;21.80;99.90;;;;;;5062306;28;20211;-64
2023/09/24 12:15:34;;;;;;;15.73;15.15;;;21.70;99.90;;;;;;5065058;28;20200;-64
2023/09/24 12:18:04;;;;;;;14.88;14.38;;;21.50;99.90;;;;;;5060506;28;20611;-63
2023/09/24 12:20:32;;;;;;;28.65;27.55;;;21.30;99.90;;;;;;5059994;28;20220;-64
2023/09/24 12:23:01;;;;;;;16.87;16.27;;;21.00;99.90;;;;;;5064326;28;20203;-64
2023/09/24 12:25:28;;;;;;;19.23;18.52;;;20.80;99.90;;;;;;5074649;28;20230;-64
2023/09/24 12:27:55;;;;;;;16.55;15.95;;;20.80;99.90;;;;;;5073086;28;20213;-64
2023/09/24 12:30:22;;;;;;;16.80;16.20;;;20.70;99.90;;;;;;5075416;28;20226;-64
2023/09/24 12:32:50;;;;;;;15.95;15.43;;;20.60;99.90;;;;;;5072740;28;20203;-63